createdAt,value
2018-11-13T00:00:00.393Z,23.20
2018-11-13T00:01:00.369Z,21.70
2018-11-13T00:02:00.350Z,22.40
2018-11-13T00:03:00.330Z,20.60
2018-11-13T00:04:00.302Z,19.90
2018-11-13T00:05:00.285Z,19.00
2018-11-13T00:06:00.263Z,19.80
2018-11-13T00:07:00.243Z,18.70
2018-11-13T00:08:00.211Z,19.70
2018-11-13T00:09:00.216Z,18.30
2018-11-13T00:10:00.166Z,16.70
2018-11-13T00:11:00.153Z,18.30
2018-11-13T00:12:00.143Z,18.50
2018-11-13T00:13:00.107Z,16.70
2018-11-13T00:14:00.094Z,18.00
2018-11-13T00:15:00.075Z,17.40
2018-11-13T00:16:00.061Z,16.10
2018-11-13T00:17:00.052Z,16.10
2018-11-13T00:18:00.008Z,16.30
2018-11-13T00:18:59.994Z,17.00
2018-11-13T00:19:59.976Z,16.30
2018-11-13T00:20:59.952Z,17.20
2018-11-13T00:21:59.934Z,16.10
2018-11-13T00:22:59.927Z,16.30
2018-11-13T00:23:59.917Z,16.00
2018-11-13T00:24:59.870Z,16.30
2018-11-13T00:25:59.850Z,14.10
2018-11-13T00:26:59.835Z,14.80
2018-11-13T00:27:59.809Z,14.90
2018-11-13T00:28:59.792Z,15.40
2018-11-13T00:29:59.768Z,14.10
2018-11-13T00:30:59.755Z,14.80
2018-11-13T00:31:59.717Z,14.10
2018-11-13T00:32:59.690Z,14.30
2018-11-13T00:33:59.673Z,14.40
2018-11-13T00:34:59.658Z,15.10
2018-11-13T00:35:59.640Z,15.00
2018-11-13T00:36:59.620Z,14.60
2018-11-13T00:37:59.601Z,14.60
2018-11-13T00:38:59.581Z,14.90
2018-11-13T00:39:59.565Z,15.10
2018-11-13T00:40:59.540Z,15.20
2018-11-13T00:41:59.535Z,14.50
2018-11-13T00:42:59.498Z,15.60
2018-11-13T00:43:59.476Z,15.20
2018-11-13T00:44:59.456Z,13.90
2018-11-13T00:45:59.455Z,14.00
2018-11-13T00:46:59.416Z,14.50
2018-11-13T00:47:59.398Z,15.00
2018-11-13T00:48:59.369Z,14.50
2018-11-13T00:49:59.353Z,15.10
2018-11-13T00:50:59.433Z,14.60
2018-11-13T00:51:59.313Z,15.00
2018-11-13T00:52:59.289Z,13.90
2018-11-13T00:53:59.271Z,14.30
2018-11-13T00:54:59.341Z,15.70
2018-11-13T00:55:59.223Z,14.20
2018-11-13T00:56:59.211Z,13.90
2018-11-13T00:57:59.182Z,15.30
2018-11-13T00:58:59.161Z,13.80
2018-11-13T00:59:59.138Z,15.30
2018-11-13T01:00:59.116Z,14.40
2018-11-13T01:01:59.122Z,14.10
2018-11-13T01:02:59.091Z,14.50
2018-11-13T01:03:59.062Z,14.60
2018-11-13T01:04:59.093Z,14.90
2018-11-13T01:05:59.024Z,14.40
2018-11-13T01:06:59.004Z,16.30
2018-11-13T01:07:58.969Z,16.00
2018-11-13T01:08:58.957Z,15.30
2018-11-13T01:09:58.939Z,15.10
2018-11-13T01:10:58.922Z,15.60
2018-11-13T01:11:59.231Z,16.10
2018-11-13T01:12:58.864Z,15.80
2018-11-13T01:13:58.845Z,15.90
2018-11-13T01:14:58.827Z,16.30
2018-11-13T01:15:58.805Z,16.80
2018-11-13T01:16:58.798Z,15.90
2018-11-13T01:17:58.780Z,16.10
2018-11-13T01:18:58.763Z,16.90
2018-11-13T01:19:58.738Z,16.20
2018-11-13T01:20:58.723Z,16.30
2018-11-13T01:21:59.116Z,15.90
2018-11-13T01:22:58.657Z,14.90
2018-11-13T01:23:58.724Z,15.60
2018-11-13T01:24:58.626Z,15.90
2018-11-13T01:25:58.620Z,15.10
2018-11-13T01:26:58.590Z,14.60
2018-11-13T01:27:58.555Z,15.30
2018-11-13T01:28:58.549Z,14.60
2018-11-13T01:29:58.526Z,16.00
2018-11-13T01:30:58.503Z,15.30
2018-11-13T01:31:58.483Z,13.90
2018-11-13T01:32:58.466Z,14.70
2018-11-13T01:33:58.445Z,15.20
2018-11-13T01:34:58.424Z,15.00
2018-11-13T01:35:58.403Z,13.90
2018-11-13T01:36:58.381Z,13.30
2018-11-13T01:37:58.351Z,13.10
2018-11-13T01:38:58.326Z,13.30
2018-11-13T01:39:58.319Z,10.70
2018-11-13T01:40:58.306Z,11.60
2018-11-13T01:41:58.275Z,11.10
2018-11-13T01:42:58.259Z,10.50
2018-11-13T01:43:58.321Z,9.50
2018-11-13T01:44:58.211Z,9.00
2018-11-13T01:45:58.206Z,8.80
2018-11-13T01:46:58.170Z,8.60
2018-11-13T01:47:58.164Z,8.70
2018-11-13T01:48:58.131Z,9.60
2018-11-13T01:49:58.096Z,8.70
2018-11-13T01:50:58.097Z,8.20
2018-11-13T01:51:58.071Z,9.00
2018-11-13T01:52:58.046Z,8.40
2018-11-13T01:53:58.156Z,8.30
2018-11-13T01:54:58.003Z,8.60
2018-11-13T01:55:57.971Z,8.20
2018-11-13T01:56:57.961Z,8.10
2018-11-13T01:57:57.945Z,8.50
2018-11-13T01:58:57.923Z,8.10
2018-11-13T01:59:57.905Z,8.00
2018-11-13T02:00:57.878Z,8.60
2018-11-13T02:01:57.860Z,8.30
2018-11-13T02:02:57.833Z,7.50
2018-11-13T02:03:57.807Z,7.50
2018-11-13T02:04:57.792Z,8.30
2018-11-13T02:05:57.776Z,8.70
2018-11-13T02:06:57.753Z,8.30
2018-11-13T02:07:57.740Z,7.90
2018-11-13T02:08:57.715Z,8.90
2018-11-13T02:09:57.690Z,8.80
2018-11-13T02:10:57.672Z,9.30
2018-11-13T02:11:57.654Z,8.80
2018-11-13T02:12:57.617Z,9.70
2018-11-13T02:13:57.602Z,8.50
2018-11-13T02:14:57.585Z,8.80
2018-11-13T02:15:57.548Z,8.30
2018-11-13T02:16:57.529Z,9.30
2018-11-13T02:17:57.513Z,8.10
2018-11-13T02:18:57.490Z,10.00
2018-11-13T02:19:57.463Z,10.00
2018-11-13T02:20:57.461Z,9.80
2018-11-13T02:21:57.440Z,9.20
2018-11-13T02:22:57.411Z,10.00
2018-11-13T02:23:57.396Z,10.30
2018-11-13T02:24:57.375Z,9.90
2018-11-13T02:25:57.358Z,10.00
2018-11-13T02:26:57.322Z,11.20
2018-11-13T02:27:57.308Z,11.40
2018-11-13T02:28:57.296Z,11.80
2018-11-13T02:29:57.269Z,10.90
2018-11-13T02:30:57.250Z,12.50
2018-11-13T02:31:57.216Z,12.30
2018-11-13T02:32:57.210Z,12.10
2018-11-13T02:33:57.189Z,12.10
2018-11-13T02:34:57.163Z,13.20
2018-11-13T02:35:57.253Z,14.50
2018-11-13T02:36:57.125Z,14.10
2018-11-13T02:37:57.103Z,13.20
2018-11-13T02:38:57.078Z,13.20
2018-11-13T02:39:57.040Z,13.80
2018-11-13T02:40:57.034Z,14.20
2018-11-13T02:41:57.031Z,14.50
2018-11-13T02:42:56.992Z,15.60
2018-11-13T02:43:56.971Z,14.20
2018-11-13T02:44:56.954Z,14.70
2018-11-13T02:45:56.938Z,14.90
2018-11-13T02:46:56.895Z,14.90
2018-11-13T02:47:56.895Z,14.40
2018-11-13T02:48:56.875Z,14.30
2018-11-13T02:49:56.851Z,15.70
2018-11-13T02:50:56.841Z,15.30
2018-11-13T02:51:56.807Z,15.20
2018-11-13T02:52:56.789Z,15.60
2018-11-13T02:53:56.764Z,15.70
2018-11-13T02:54:56.749Z,15.80
2018-11-13T02:55:56.724Z,14.20
2018-11-13T02:56:56.690Z,14.30
2018-11-13T02:57:56.685Z,15.00
2018-11-13T02:58:56.665Z,15.30
2018-11-13T02:59:56.641Z,14.80
2018-11-13T03:00:56.610Z,14.50
2018-11-13T03:01:56.597Z,14.10
2018-11-13T03:02:56.566Z,13.80
2018-11-13T03:03:56.555Z,13.50
2018-11-13T03:04:56.534Z,14.30
2018-11-13T03:05:56.497Z,14.20
2018-11-13T03:06:56.492Z,13.90
2018-11-13T03:07:56.469Z,14.70
2018-11-13T03:08:56.433Z,14.30
2018-11-13T03:09:56.431Z,12.50
2018-11-13T03:10:56.426Z,13.70
2018-11-13T03:11:56.391Z,13.30
2018-11-13T03:12:56.372Z,13.70
2018-11-13T03:13:56.467Z,13.20
2018-11-13T03:14:56.325Z,13.40
2018-11-13T03:15:56.300Z,14.20
2018-11-13T03:16:56.284Z,13.50
2018-11-13T03:17:56.268Z,11.00
2018-11-13T03:18:56.241Z,12.70
2018-11-13T03:19:56.220Z,12.70
2018-11-13T03:20:56.194Z,13.90
2018-11-13T03:21:56.174Z,12.40
2018-11-13T03:22:56.156Z,13.30
2018-11-13T03:23:56.133Z,12.80
2018-11-13T03:24:56.121Z,11.20
2018-11-13T03:25:56.090Z,12.30
2018-11-13T03:26:56.058Z,13.00
2018-11-13T03:27:56.049Z,13.50
2018-11-13T03:28:56.028Z,12.60
2018-11-13T03:29:56.006Z,11.70
2018-11-13T03:30:56.111Z,10.70
2018-11-13T03:31:55.965Z,11.10
2018-11-13T03:32:55.932Z,11.70
2018-11-13T03:33:55.916Z,11.80
2018-11-13T03:34:55.888Z,12.00
2018-11-13T03:35:55.884Z,11.60
2018-11-13T03:36:55.854Z,11.70
2018-11-13T03:37:55.841Z,12.30
2018-11-13T03:38:55.800Z,12.40
2018-11-13T03:39:55.792Z,12.30
2018-11-13T03:40:55.768Z,11.60
2018-11-13T03:41:55.740Z,12.10
2018-11-13T03:42:55.720Z,12.90
2018-11-13T03:43:55.712Z,11.90
2018-11-13T03:44:55.689Z,11.30
2018-11-13T03:45:55.670Z,12.30
2018-11-13T03:46:55.653Z,13.30
2018-11-13T03:47:55.629Z,12.40
2018-11-13T03:48:55.614Z,12.40
2018-11-13T03:49:55.584Z,12.30
2018-11-13T03:50:55.565Z,12.80
2018-11-13T03:51:55.527Z,13.50
2018-11-13T03:52:55.516Z,13.00
2018-11-13T03:53:55.481Z,12.00
2018-11-13T03:54:55.466Z,13.10
2018-11-13T03:55:55.466Z,12.60
2018-11-13T03:56:55.445Z,13.20
2018-11-13T03:57:55.424Z,12.60
2018-11-13T03:58:55.397Z,13.30
2018-11-13T03:59:55.372Z,13.10
2018-11-13T04:00:55.349Z,13.60
2018-11-13T04:01:55.331Z,12.90
2018-11-13T04:02:55.315Z,13.60
2018-11-13T04:03:55.296Z,13.20
2018-11-13T04:04:55.272Z,14.70
2018-11-13T04:05:55.245Z,17.30
2018-11-13T04:06:55.228Z,15.60
2018-11-13T04:07:55.209Z,14.50
2018-11-13T04:08:55.175Z,16.20
2018-11-13T04:09:55.160Z,14.80
2018-11-13T04:10:55.148Z,15.10
2018-11-13T04:11:55.127Z,14.20
2018-11-13T04:12:55.101Z,14.10
2018-11-13T04:13:55.085Z,13.80
2018-11-13T04:14:55.063Z,13.60
2018-11-13T04:15:55.040Z,14.00
2018-11-13T04:16:54.998Z,14.10
2018-11-13T04:17:54.996Z,13.40
2018-11-13T04:18:54.960Z,14.80
2018-11-13T04:19:54.958Z,14.00
2018-11-13T04:20:54.947Z,14.30
2018-11-13T04:21:54.913Z,14.60
2018-11-13T04:22:54.885Z,14.20
2018-11-13T04:23:54.867Z,16.60
2018-11-13T04:24:54.845Z,16.00
2018-11-13T04:25:54.826Z,16.20
2018-11-13T04:26:54.812Z,14.90
2018-11-13T04:27:54.793Z,15.50
2018-11-13T04:28:54.768Z,14.90
2018-11-13T04:29:54.741Z,15.20
2018-11-13T04:30:54.767Z,14.80
2018-11-13T04:31:54.686Z,15.50
2018-11-13T04:32:54.681Z,14.90
2018-11-13T04:33:54.652Z,15.00
2018-11-13T04:34:54.637Z,15.70
2018-11-13T04:35:54.604Z,16.80
2018-11-13T04:36:54.582Z,16.90
2018-11-13T04:37:54.567Z,16.40
2018-11-13T04:38:54.551Z,17.30
2018-11-13T04:39:54.532Z,16.50
2018-11-13T04:40:54.518Z,17.60
2018-11-13T04:41:54.491Z,17.50
2018-11-13T04:42:54.451Z,17.80
2018-11-13T04:43:54.426Z,16.50
2018-11-13T04:44:54.414Z,17.50
2018-11-13T04:45:54.403Z,17.10
2018-11-13T04:46:54.367Z,17.00
2018-11-13T04:47:54.358Z,17.60
2018-11-13T04:48:54.342Z,18.20
2018-11-13T04:49:54.320Z,18.90
2018-11-13T04:50:54.302Z,19.00
2018-11-13T04:51:54.269Z,16.00
2018-11-13T04:52:54.252Z,18.10
2018-11-13T04:53:54.232Z,18.90
2018-11-13T04:54:54.217Z,19.50
2018-11-13T04:55:54.196Z,18.80
2018-11-13T04:56:54.153Z,20.10
2018-11-13T04:57:54.135Z,18.70
2018-11-13T04:58:54.117Z,17.20
2018-11-13T04:59:54.120Z,18.60
2018-11-13T05:00:54.091Z,18.50
2018-11-13T05:01:54.064Z,17.70
2018-11-13T05:02:54.093Z,18.20
2018-11-13T05:03:54.021Z,16.20
2018-11-13T05:04:54.002Z,17.70
2018-11-13T05:05:53.984Z,16.70
2018-11-13T05:06:53.961Z,17.90
2018-11-13T05:07:53.941Z,17.40
2018-11-13T05:08:53.917Z,19.00
2018-11-13T05:09:53.941Z,18.50
2018-11-13T05:10:53.879Z,18.10
2018-11-13T05:11:53.860Z,16.90
2018-11-13T05:12:53.832Z,17.40
2018-11-13T05:13:53.807Z,16.50
2018-11-13T05:14:53.789Z,17.40
2018-11-13T05:15:53.769Z,17.60
2018-11-13T05:16:53.753Z,17.20
2018-11-13T05:17:53.726Z,17.50
2018-11-13T05:18:53.709Z,17.70
2018-11-13T05:19:53.688Z,17.30
2018-11-13T05:20:53.651Z,17.30
2018-11-13T05:21:53.650Z,16.20
2018-11-13T05:22:53.666Z,17.10
2018-11-13T05:23:53.607Z,15.70
2018-11-13T05:24:53.581Z,16.00
2018-11-13T05:25:53.556Z,16.50
2018-11-13T05:26:53.532Z,17.20
2018-11-13T05:27:53.517Z,18.20
2018-11-13T05:28:53.496Z,16.50
2018-11-13T05:29:53.475Z,16.30
2018-11-13T05:30:53.453Z,17.50
2018-11-13T05:31:53.435Z,16.10
2018-11-13T05:32:53.415Z,15.50
2018-11-13T05:33:53.387Z,17.10
2018-11-13T05:34:53.367Z,16.00
2018-11-13T05:35:53.342Z,17.00
2018-11-13T05:36:53.395Z,15.80
2018-11-13T05:37:53.307Z,15.90
2018-11-13T05:38:53.282Z,15.70
2018-11-13T05:39:53.248Z,16.40
2018-11-13T05:40:53.227Z,16.20
2018-11-13T05:41:53.308Z,15.20
2018-11-13T05:42:53.188Z,15.90
2018-11-13T05:43:53.181Z,15.90
2018-11-13T05:44:53.157Z,13.70
2018-11-13T05:45:53.121Z,15.20
2018-11-13T05:46:53.108Z,16.00
2018-11-13T05:47:53.079Z,14.90
2018-11-13T05:48:53.075Z,15.10
2018-11-13T05:49:53.051Z,14.90
2018-11-13T05:50:53.028Z,16.10
2018-11-13T05:51:53.013Z,16.60
2018-11-13T05:52:52.990Z,15.50
2018-11-13T05:53:52.971Z,15.30
2018-11-13T05:54:52.955Z,15.90
2018-11-13T05:55:52.926Z,14.40
2018-11-13T05:56:52.903Z,15.40
2018-11-13T05:57:52.885Z,15.80
2018-11-13T05:58:52.868Z,15.10
2018-11-13T05:59:52.880Z,14.90
2018-11-13T06:00:52.826Z,12.60
2018-11-13T06:01:52.798Z,13.70
2018-11-13T06:02:52.768Z,15.10
2018-11-13T06:03:52.758Z,13.30
2018-11-13T06:04:52.742Z,11.80
2018-11-13T06:05:52.717Z,12.60
2018-11-13T06:06:52.699Z,13.60
2018-11-13T06:07:52.679Z,12.60
2018-11-13T06:08:52.659Z,14.80
2018-11-13T06:09:52.629Z,13.40
2018-11-13T06:10:52.608Z,13.10
2018-11-13T06:11:52.596Z,11.80
2018-11-13T06:12:52.579Z,11.80
2018-11-13T06:13:52.605Z,11.90
2018-11-13T06:14:52.528Z,11.60
2018-11-13T06:15:52.498Z,12.50
2018-11-13T06:16:52.490Z,12.00
2018-11-13T06:17:52.469Z,9.30
2018-11-13T06:18:52.444Z,9.30
2018-11-13T06:19:52.430Z,12.30
2018-11-13T06:20:52.405Z,11.70
2018-11-13T06:21:52.377Z,12.90
2018-11-13T06:22:52.403Z,12.40
2018-11-13T06:23:52.339Z,11.70
2018-11-13T06:24:52.317Z,12.50
2018-11-13T06:25:52.296Z,12.30
2018-11-13T06:26:52.259Z,12.50
2018-11-13T06:27:52.251Z,10.50
2018-11-13T06:28:52.238Z,11.30
2018-11-13T06:29:52.216Z,12.80
2018-11-13T06:30:52.193Z,13.00
2018-11-13T06:31:52.172Z,13.50
2018-11-13T06:32:52.153Z,13.90
2018-11-13T06:33:52.125Z,13.60
2018-11-13T06:34:52.108Z,11.60
2018-11-13T06:35:52.085Z,12.60
2018-11-13T06:36:52.068Z,13.50
2018-11-13T06:37:52.042Z,13.50
2018-11-13T06:38:52.111Z,12.40
2018-11-13T06:39:51.995Z,12.70
2018-11-13T06:40:51.964Z,12.00
2018-11-13T06:41:51.952Z,10.60
2018-11-13T06:42:51.942Z,12.60
2018-11-13T06:43:51.913Z,8.50
2018-11-13T06:44:51.892Z,10.40
2018-11-13T06:45:51.871Z,12.60
2018-11-13T06:46:51.854Z,13.40
2018-11-13T06:47:51.829Z,13.00
2018-11-13T06:48:51.848Z,12.30
2018-11-13T06:49:51.788Z,12.70
2018-11-13T06:50:51.771Z,12.20
2018-11-13T06:51:51.735Z,12.20
2018-11-13T06:52:51.715Z,11.90
2018-11-13T06:53:51.704Z,12.10
2018-11-13T06:54:51.668Z,12.50
2018-11-13T06:55:51.662Z,12.90
2018-11-13T06:56:51.640Z,12.90
2018-11-13T06:57:51.620Z,12.80
2018-11-13T06:58:51.605Z,12.30
2018-11-13T06:59:51.584Z,12.30
2018-11-13T07:00:51.546Z,11.70
2018-11-13T07:01:51.546Z,13.40
2018-11-13T07:02:51.513Z,14.40
2018-11-13T07:03:51.482Z,13.90
2018-11-13T07:04:51.508Z,12.90
2018-11-13T07:05:51.454Z,13.00
2018-11-13T07:06:51.412Z,13.00
2018-11-13T07:07:51.410Z,12.80
2018-11-13T07:08:51.395Z,12.30
2018-11-13T07:09:51.365Z,13.40
2018-11-13T07:10:51.552Z,13.60
2018-11-13T07:11:51.337Z,12.30
2018-11-13T07:12:51.311Z,11.40
2018-11-13T07:13:51.283Z,12.50
2018-11-13T07:14:51.265Z,11.10
2018-11-13T07:15:51.245Z,11.30
2018-11-13T07:16:51.225Z,11.60
2018-11-13T07:17:51.206Z,12.40
2018-11-13T07:18:51.182Z,12.80
2018-11-13T07:19:51.166Z,12.40
2018-11-13T07:20:51.144Z,12.40
2018-11-13T07:21:51.117Z,11.80
2018-11-13T07:22:51.104Z,11.70
2018-11-13T07:23:51.076Z,11.80
2018-11-13T07:24:51.058Z,13.00
2018-11-13T07:25:51.037Z,12.10
2018-11-13T07:26:51.013Z,11.80
2018-11-13T07:27:51.075Z,11.90
2018-11-13T07:28:50.959Z,10.10
2018-11-13T07:29:50.950Z,9.90
2018-11-13T07:30:50.920Z,11.70
2018-11-13T07:31:50.917Z,11.80
2018-11-13T07:32:50.886Z,12.70
2018-11-13T07:33:50.871Z,12.10
2018-11-13T07:34:50.831Z,12.10
2018-11-13T07:35:50.825Z,12.20
2018-11-13T07:36:50.803Z,11.90
2018-11-13T07:37:50.778Z,12.10
2018-11-13T07:38:50.764Z,11.50
2018-11-13T07:39:50.738Z,11.70
2018-11-13T07:40:50.776Z,12.80
2018-11-13T07:41:50.700Z,11.50
2018-11-13T07:42:50.680Z,12.10
2018-11-13T07:43:50.661Z,11.80
2018-11-13T07:44:50.637Z,12.60
2018-11-13T07:45:50.607Z,13.00
2018-11-13T07:46:50.637Z,12.80
2018-11-13T07:47:50.715Z,12.80
2018-11-13T07:48:50.551Z,12.30
2018-11-13T07:49:50.526Z,12.70
2018-11-13T07:50:50.496Z,12.40
2018-11-13T07:51:50.475Z,12.80
2018-11-13T07:52:50.468Z,12.90
2018-11-13T07:53:50.459Z,12.30
2018-11-13T07:54:50.430Z,12.90
2018-11-13T07:55:50.393Z,13.80
2018-11-13T07:56:50.380Z,14.30
2018-11-13T07:57:50.350Z,14.30
2018-11-13T07:58:50.325Z,12.60
2018-11-13T07:59:50.322Z,14.10
2018-11-13T08:00:50.297Z,13.40
2018-11-13T08:01:50.278Z,14.70
2018-11-13T08:02:50.261Z,14.90
2018-11-13T08:03:50.236Z,15.00
2018-11-13T08:04:50.215Z,14.80
2018-11-13T08:05:50.191Z,13.60
2018-11-13T08:06:50.282Z,13.60
2018-11-13T08:07:50.153Z,14.70
2018-11-13T08:08:50.116Z,14.00
2018-11-13T08:09:50.108Z,13.70
2018-11-13T08:10:50.073Z,13.10
2018-11-13T08:11:50.065Z,14.10
2018-11-13T08:12:50.081Z,14.80
2018-11-13T08:13:50.020Z,14.10
2018-11-13T08:14:50.005Z,14.60
2018-11-13T08:15:49.988Z,15.30
2018-11-13T08:16:49.959Z,15.20
2018-11-13T08:17:49.941Z,15.40
2018-11-13T08:18:49.953Z,14.70
2018-11-13T08:19:49.904Z,14.80
2018-11-13T08:20:49.878Z,15.80
2018-11-13T08:21:49.902Z,14.60
2018-11-13T08:22:49.831Z,14.90
2018-11-13T08:23:49.808Z,15.20
2018-11-13T08:24:49.787Z,15.70
2018-11-13T08:25:49.759Z,15.30
2018-11-13T08:26:49.762Z,15.30
2018-11-13T08:27:49.731Z,16.00
2018-11-13T08:28:49.826Z,16.20
2018-11-13T08:29:49.684Z,14.80
2018-11-13T08:30:49.667Z,15.60
2018-11-13T08:31:49.643Z,15.20
2018-11-13T08:32:49.614Z,14.70
2018-11-13T08:33:49.587Z,14.00
2018-11-13T08:34:49.648Z,15.20
2018-11-13T08:35:49.564Z,16.00
2018-11-13T08:36:49.542Z,14.80
2018-11-13T08:37:49.517Z,14.60
2018-11-13T08:38:49.494Z,15.60
2018-11-13T08:39:49.483Z,14.30
2018-11-13T08:40:49.455Z,13.90
2018-11-13T08:41:49.437Z,13.80
2018-11-13T08:42:49.411Z,15.60
2018-11-13T08:43:49.409Z,14.10
2018-11-13T08:44:49.378Z,13.40
2018-11-13T08:45:49.352Z,13.80
2018-11-13T08:46:49.329Z,13.20
2018-11-13T08:47:49.313Z,13.00
2018-11-13T08:48:49.287Z,13.30
2018-11-13T08:49:49.271Z,13.60
2018-11-13T08:50:49.293Z,12.70
2018-11-13T08:51:49.228Z,13.10
2018-11-13T08:52:49.212Z,13.80
2018-11-13T08:53:49.176Z,12.90
2018-11-13T08:54:49.163Z,13.40
2018-11-13T08:55:49.152Z,12.40
2018-11-13T08:56:49.134Z,12.50
2018-11-13T08:57:49.121Z,11.40
2018-11-13T08:58:49.166Z,12.20
2018-11-13T08:59:49.062Z,12.30
2018-11-13T09:00:49.043Z,12.00
2018-11-13T09:01:49.025Z,13.00
2018-11-13T09:02:49.018Z,10.80
2018-11-13T09:03:49.002Z,10.80
2018-11-13T09:04:48.985Z,11.50
2018-11-13T09:05:48.963Z,11.30
2018-11-13T09:06:48.940Z,11.50
2018-11-13T09:07:48.925Z,11.30
2018-11-13T09:08:48.912Z,11.90
2018-11-13T09:09:48.889Z,11.90
2018-11-13T09:10:48.862Z,11.40
2018-11-13T09:11:49.019Z,11.30
2018-11-13T09:12:48.828Z,11.80
2018-11-13T09:13:48.808Z,11.20
2018-11-13T09:14:48.796Z,11.00
2018-11-13T09:15:48.777Z,11.20
2018-11-13T09:16:48.759Z,11.80
2018-11-13T09:17:48.722Z,11.20
2018-11-13T09:18:48.742Z,11.10
2018-11-13T09:19:48.705Z,12.10
2018-11-13T09:20:48.675Z,12.10
2018-11-13T09:21:48.699Z,11.50
2018-11-13T09:22:48.668Z,11.70
2018-11-13T09:23:48.634Z,12.10
2018-11-13T09:24:48.619Z,11.90
2018-11-13T09:25:48.598Z,11.90
2018-11-13T09:26:48.586Z,12.30
2018-11-13T09:27:48.568Z,12.00
2018-11-13T09:28:48.547Z,12.60
2018-11-13T09:29:48.615Z,11.50
2018-11-13T09:30:48.777Z,11.80
2018-11-13T09:31:48.558Z,11.10
2018-11-13T09:32:48.543Z,11.40
2018-11-13T09:33:48.465Z,10.70
2018-11-13T09:34:48.450Z,11.10
2018-11-13T09:35:48.457Z,11.80
2018-11-13T09:36:48.417Z,11.20
2018-11-13T09:37:48.380Z,10.40
2018-11-13T09:38:48.379Z,10.10
2018-11-13T09:39:48.363Z,11.50
2018-11-13T09:40:48.349Z,9.90
2018-11-13T09:41:48.330Z,10.50
2018-11-13T09:42:48.313Z,10.00
2018-11-13T09:43:48.300Z,10.70
2018-11-13T09:44:48.339Z,9.50
2018-11-13T09:45:48.335Z,9.90
2018-11-13T09:46:48.249Z,10.20
2018-11-13T09:47:48.326Z,9.90
2018-11-13T09:48:48.206Z,11.20
2018-11-13T09:49:48.206Z,9.70
2018-11-13T09:50:48.275Z,10.30
2018-11-13T09:51:48.175Z,10.60
2018-11-13T09:52:48.163Z,10.40
2018-11-13T09:53:48.220Z,8.90
2018-11-13T09:54:48.135Z,9.70
2018-11-13T09:55:48.097Z,10.20
2018-11-13T09:56:48.080Z,10.00
2018-11-13T09:57:48.084Z,9.90
2018-11-13T09:58:48.109Z,9.70
2018-11-13T09:59:48.090Z,10.00
2018-11-13T10:00:48.248Z,10.70
2018-11-13T10:01:48.490Z,10.90
2018-11-13T10:02:48.770Z,9.90
2018-11-13T10:03:48.620Z,10.10
2018-11-13T10:04:48.687Z,10.40
2018-11-13T10:05:48.094Z,9.30
2018-11-13T10:06:47.971Z,9.60
2018-11-13T10:07:47.946Z,10.30
2018-11-13T10:08:48.333Z,9.90
2018-11-13T10:09:47.915Z,9.80
2018-11-13T10:10:47.969Z,10.50
2018-11-13T10:11:47.891Z,10.50
2018-11-13T10:12:47.879Z,10.00
2018-11-13T10:13:47.852Z,8.90
2018-11-13T10:14:47.851Z,9.80
2018-11-13T10:15:47.821Z,9.10
2018-11-13T10:16:47.813Z,8.00
2018-11-13T10:17:47.886Z,9.40
2018-11-13T10:18:47.786Z,8.90
2018-11-13T10:19:47.780Z,11.00
2018-11-13T10:20:47.777Z,9.90
2018-11-13T10:21:47.755Z,10.10
2018-11-13T10:22:47.732Z,10.40
2018-11-13T10:23:47.738Z,10.20
2018-11-13T10:24:47.727Z,10.00
2018-11-13T10:25:47.716Z,9.50
2018-11-13T10:26:47.699Z,9.80
2018-11-13T10:27:47.707Z,10.50
2018-11-13T10:28:47.696Z,10.90
2018-11-13T10:29:47.682Z,10.30
2018-11-13T10:30:47.653Z,9.10
2018-11-13T10:31:47.648Z,8.30
2018-11-13T10:32:47.670Z,9.70
2018-11-13T10:33:47.618Z,8.90
2018-11-13T10:34:47.611Z,8.60
2018-11-13T10:35:47.597Z,9.00
2018-11-13T10:36:47.580Z,8.70
2018-11-13T10:37:47.578Z,8.40
2018-11-13T10:38:47.558Z,8.10
2018-11-13T10:39:47.593Z,8.10
2018-11-13T10:40:47.741Z,7.90
2018-11-13T10:41:47.511Z,8.30
2018-11-13T10:42:47.494Z,7.90
2018-11-13T10:43:47.496Z,7.50
2018-11-13T10:44:47.493Z,7.90
2018-11-13T10:45:47.483Z,7.40
2018-11-13T10:46:47.470Z,7.50
2018-11-13T10:47:47.467Z,7.90
2018-11-13T10:48:47.465Z,7.90
2018-11-13T10:49:47.436Z,7.60
2018-11-13T10:50:47.421Z,7.10
2018-11-13T10:51:47.411Z,7.30
2018-11-13T10:52:47.409Z,7.20
2018-11-13T10:53:47.392Z,7.30
2018-11-13T10:54:47.378Z,8.30
2018-11-13T10:55:47.362Z,7.80
2018-11-13T10:56:47.357Z,8.00
2018-11-13T10:57:47.330Z,8.30
2018-11-13T10:58:47.330Z,8.10
2018-11-13T10:59:47.307Z,9.10
2018-11-13T11:00:47.431Z,9.20
2018-11-13T11:01:47.281Z,8.50
2018-11-13T11:02:47.318Z,8.30
2018-11-13T11:03:47.280Z,8.00
2018-11-13T11:04:47.264Z,7.60
2018-11-13T11:05:47.244Z,8.80
2018-11-13T11:06:47.247Z,7.40
2018-11-13T11:07:47.230Z,7.40
2018-11-13T11:08:47.208Z,8.00
2018-11-13T11:09:47.184Z,7.00
2018-11-13T11:10:47.193Z,7.80
2018-11-13T11:11:47.177Z,7.70
2018-11-13T11:12:47.182Z,8.60
2018-11-13T11:13:47.303Z,9.30
2018-11-13T11:14:47.144Z,9.50
2018-11-13T11:15:47.133Z,7.60
2018-11-13T11:16:47.121Z,7.00
2018-11-13T11:17:47.105Z,7.80
2018-11-13T11:18:47.132Z,7.00
2018-11-13T11:19:47.081Z,7.70
2018-11-13T11:20:47.074Z,8.20
2018-11-13T11:21:47.048Z,8.00
2018-11-13T11:22:47.089Z,7.60
2018-11-13T11:23:47.084Z,7.40
2018-11-13T11:24:47.016Z,7.90
2018-11-13T11:25:47.014Z,7.10
2018-11-13T11:26:46.981Z,6.50
2018-11-13T11:27:47.056Z,8.80
2018-11-13T11:28:46.971Z,7.80
2018-11-13T11:29:46.953Z,6.70
2018-11-13T11:30:46.989Z,7.60
2018-11-13T11:31:46.933Z,7.80
2018-11-13T11:32:46.923Z,6.90
2018-11-13T11:33:46.905Z,6.70
2018-11-13T11:34:46.896Z,6.60
2018-11-13T11:35:46.882Z,5.90
2018-11-13T11:36:46.868Z,5.50
2018-11-13T11:37:46.854Z,3.60
2018-11-13T11:38:46.927Z,4.50
2018-11-13T11:39:46.840Z,3.90
2018-11-13T11:40:46.827Z,4.40
2018-11-13T11:41:46.808Z,4.90
2018-11-13T11:42:46.794Z,5.00
2018-11-13T11:43:46.763Z,4.40
2018-11-13T11:44:46.756Z,4.40
2018-11-13T11:45:46.743Z,5.10
2018-11-13T11:46:46.743Z,4.90
2018-11-13T11:47:46.734Z,4.20
2018-11-13T11:48:46.716Z,4.30
2018-11-13T11:49:46.706Z,4.60
2018-11-13T11:50:46.712Z,3.10
2018-11-13T11:51:46.676Z,3.30
2018-11-13T11:52:46.647Z,3.30
2018-11-13T11:53:46.664Z,3.20
2018-11-13T11:54:46.625Z,3.80
2018-11-13T11:55:46.626Z,3.90
2018-11-13T11:56:46.616Z,3.10
2018-11-13T11:57:46.605Z,3.20
2018-11-13T11:58:46.584Z,2.80
2018-11-13T11:59:46.577Z,3.10
2018-11-13T12:00:46.654Z,3.60
2018-11-13T12:01:46.548Z,3.10
2018-11-13T12:02:46.537Z,3.30
2018-11-13T12:03:46.522Z,3.00
2018-11-13T12:04:46.530Z,2.80
2018-11-13T12:05:46.502Z,3.00
2018-11-13T12:06:46.486Z,3.30
2018-11-13T12:07:46.469Z,3.40
2018-11-13T12:08:46.464Z,3.50
2018-11-13T12:09:46.444Z,3.20
2018-11-13T12:10:46.429Z,3.30
2018-11-13T12:11:46.415Z,3.30
2018-11-13T12:12:46.405Z,3.70
2018-11-13T12:13:46.389Z,2.90
2018-11-13T12:14:46.376Z,3.10
2018-11-13T12:15:46.349Z,3.80
2018-11-13T12:16:46.346Z,3.20
2018-11-13T12:17:46.320Z,3.20
2018-11-13T12:18:46.337Z,2.40
2018-11-13T12:19:46.304Z,3.00
2018-11-13T12:20:46.303Z,3.20
2018-11-13T12:21:46.279Z,2.50
2018-11-13T12:22:46.267Z,2.10
2018-11-13T12:23:46.276Z,2.30
2018-11-13T12:24:46.260Z,2.20
2018-11-13T12:25:46.292Z,2.20
2018-11-13T12:26:46.223Z,2.50
2018-11-13T12:27:46.208Z,2.90
2018-11-13T12:28:46.193Z,2.80
2018-11-13T12:29:46.227Z,2.40
2018-11-13T12:30:46.176Z,2.90
2018-11-13T12:31:46.156Z,3.00
2018-11-13T12:32:46.190Z,2.50
2018-11-13T12:33:46.140Z,2.50
2018-11-13T12:34:46.230Z,2.20
2018-11-13T12:35:46.090Z,2.40
2018-11-13T12:36:46.096Z,2.70
2018-11-13T12:37:46.081Z,1.80
2018-11-13T12:38:46.056Z,1.80
2018-11-13T12:39:46.073Z,2.70
2018-11-13T12:40:46.117Z,2.80
2018-11-13T12:41:46.029Z,1.90
2018-11-13T12:42:46.517Z,2.60
2018-11-13T12:43:45.997Z,2.70
2018-11-13T12:44:45.978Z,2.80
2018-11-13T12:45:45.968Z,3.00
2018-11-13T12:46:45.967Z,3.00
2018-11-13T12:47:45.959Z,2.60
2018-11-13T12:48:45.984Z,2.80
2018-11-13T12:49:45.933Z,3.10
2018-11-13T12:50:45.922Z,3.20
2018-11-13T12:51:45.902Z,3.40
2018-11-13T12:52:45.901Z,2.80
2018-11-13T12:53:45.877Z,2.60
2018-11-13T12:54:45.868Z,2.70
2018-11-13T12:55:46.026Z,2.50
2018-11-13T12:56:45.841Z,2.20
2018-11-13T12:57:45.833Z,2.30
2018-11-13T12:58:45.824Z,2.90